createdAt,value
2023-03-26T00:02:03.983Z,92.70
2023-03-26T00:04:33.622Z,91.49
2023-03-26T00:07:01.380Z,91.82
2023-03-26T00:09:29.847Z,90.35
2023-03-26T00:11:57.701Z,91.43
2023-03-26T00:14:26.639Z,91.10
2023-03-26T00:16:54.525Z,91.00
2023-03-26T00:19:23.587Z,91.73
2023-03-26T00:21:52.516Z,91.49
2023-03-26T00:24:20.245Z,91.09
2023-03-26T00:26:53.483Z,90.67
2023-03-26T00:29:22.871Z,90.97
2023-03-26T00:31:50.661Z,91.37
2023-03-26T00:34:18.885Z,91.12
2023-03-26T00:36:47.974Z,93.09
2023-03-26T00:39:17.695Z,92.87
2023-03-26T00:41:45.485Z,91.43
2023-03-26T00:44:13.299Z,91.35
2023-03-26T00:46:41.278Z,91.85
2023-03-26T00:49:10.841Z,93.04
2023-03-26T00:51:39.216Z,92.31
2023-03-26T00:54:09.153Z,93.98
2023-03-26T00:56:37.206Z,94.19
2023-03-26T00:59:05.390Z,94.62
2023-03-26T01:01:33.359Z,94.14
2023-03-26T01:04:24.119Z,92.12
2023-03-26T01:06:52.113Z,93.21
2023-03-26T01:09:26.329Z,94.22
2023-03-26T01:11:54.087Z,94.32
2023-03-26T01:14:24.484Z,93.40
2023-03-26T01:16:54.824Z,92.34
2023-03-26T01:19:30.271Z,91.97
2023-03-26T01:21:59.177Z,92.05
2023-03-26T01:24:28.299Z,91.70
2023-03-26T01:27:11.198Z,91.99
2023-03-26T01:29:45.390Z,92.09
2023-03-26T01:32:23.394Z,90.75
2023-03-26T01:35:01.613Z,90.33
2023-03-26T01:37:38.421Z,90.13
2023-03-26T01:40:16.173Z,90.79
2023-03-26T01:42:49.136Z,90.29
2023-03-26T01:45:19.147Z,90.55
2023-03-26T01:47:48.222Z,92.16
2023-03-26T01:50:16.176Z,91.57
2023-03-26T01:52:43.851Z,91.36
2023-03-26T01:55:14.390Z,89.46
2023-03-26T01:57:53.277Z,89.96
2023-03-26T02:00:29.079Z,90.72
2023-03-26T02:03:18.121Z,91.19
2023-03-26T02:05:54.286Z,90.02
2023-03-26T02:08:25.310Z,89.25
2023-03-26T02:10:58.516Z,89.28
2023-03-26T02:13:27.197Z,88.57
2023-03-26T02:15:59.909Z,88.03
2023-03-26T02:18:36.123Z,90.19
2023-03-26T02:21:06.299Z,88.00
2023-03-26T02:23:38.444Z,88.36
2023-03-26T02:26:09.750Z,87.34
2023-03-26T02:28:37.547Z,87.11
2023-03-26T02:31:05.869Z,86.80
2023-03-26T02:33:33.662Z,87.90
2023-03-26T02:36:02.049Z,89.46
2023-03-26T02:38:30.453Z,87.67
2023-03-26T02:40:58.724Z,86.74
2023-03-26T02:43:27.994Z,87.71
2023-03-26T02:45:56.267Z,87.63
2023-03-26T02:48:24.328Z,87.44
2023-03-26T02:50:54.286Z,87.39
2023-03-26T02:53:24.146Z,88.48
2023-03-26T02:55:52.241Z,87.79
2023-03-26T02:58:20.153Z,87.52
2023-03-26T03:00:50.873Z,86.87
2023-03-26T03:03:18.606Z,88.71
2023-03-26T03:05:46.339Z,88.83
2023-03-26T03:08:14.006Z,87.91
2023-03-26T03:10:42.439Z,88.76
2023-03-26T03:13:10.256Z,89.42
2023-03-26T03:15:37.986Z,87.63
2023-03-26T03:18:07.553Z,88.61
2023-03-26T03:20:35.786Z,88.03
2023-03-26T03:23:03.436Z,89.73
2023-03-26T03:25:32.532Z,88.84
2023-03-26T03:28:00.226Z,88.21
2023-03-26T03:30:27.960Z,88.86
2023-03-26T03:32:58.348Z,87.82
2023-03-26T03:35:27.892Z,88.41
2023-03-26T03:37:55.668Z,88.65
2023-03-26T03:40:23.380Z,87.94
2023-03-26T03:42:51.510Z,87.95
2023-03-26T03:45:20.342Z,88.74
2023-03-26T03:47:48.313Z,88.95
2023-03-26T03:50:16.179Z,88.74
2023-03-26T03:52:45.532Z,88.08
2023-03-26T03:55:14.009Z,88.93
2023-03-26T03:57:42.069Z,87.41
2023-03-26T04:00:11.789Z,87.04
2023-03-26T04:02:42.885Z,88.42
2023-03-26T04:05:11.693Z,88.07
2023-03-26T04:07:39.714Z,86.51
2023-03-26T04:10:10.888Z,85.70
2023-03-26T04:12:38.595Z,85.47
2023-03-26T04:15:07.299Z,85.48
2023-03-26T04:17:42.326Z,83.50
2023-03-26T04:20:14.702Z,83.46
2023-03-26T04:22:43.601Z,84.38
2023-03-26T04:25:15.509Z,82.77
2023-03-26T04:27:44.064Z,83.28
2023-03-26T04:30:16.094Z,81.80
2023-03-26T04:32:44.702Z,80.06
2023-03-26T04:35:16.404Z,81.03
2023-03-26T04:37:46.264Z,81.06
2023-03-26T04:40:19.383Z,81.92
2023-03-26T04:42:47.316Z,81.06
2023-03-26T04:45:17.588Z,80.38
2023-03-26T04:47:46.544Z,79.97
2023-03-26T04:50:14.602Z,80.28
2023-03-26T04:52:45.108Z,79.95
2023-03-26T04:55:23.149Z,80.70
2023-03-26T04:57:54.787Z,80.14
2023-03-26T05:00:22.731Z,79.55
2023-03-26T05:02:51.082Z,80.13
2023-03-26T05:05:19.208Z,79.66
2023-03-26T05:07:46.908Z,81.09
2023-03-26T05:10:17.754Z,82.89
2023-03-26T05:12:45.854Z,81.61
2023-03-26T05:15:14.225Z,82.76
2023-03-26T05:17:42.401Z,81.37
2023-03-26T05:20:18.297Z,82.66
2023-03-26T05:22:45.969Z,83.01
2023-03-26T05:25:13.666Z,81.88
2023-03-26T05:27:42.712Z,81.65
2023-03-26T05:30:10.880Z,80.57
2023-03-26T05:32:38.643Z,81.66
2023-03-26T05:35:07.561Z,81.45
2023-03-26T05:37:35.529Z,80.63
2023-03-26T05:40:04.114Z,79.63
2023-03-26T05:42:31.796Z,79.40
2023-03-26T05:45:00.839Z,79.27
2023-03-26T05:47:28.571Z,79.05
2023-03-26T05:49:56.272Z,78.85
2023-03-26T05:52:23.922Z,79.51
2023-03-26T05:54:51.583Z,79.21
2023-03-26T05:57:19.552Z,79.60
2023-03-26T05:59:47.241Z,79.47
2023-03-26T06:02:16.427Z,79.92
2023-03-26T06:04:45.779Z,80.04
2023-03-26T06:07:13.737Z,79.32
2023-03-26T06:09:41.525Z,79.66
2023-03-26T06:12:10.956Z,79.83
2023-03-26T06:14:38.809Z,81.21
2023-03-26T06:17:06.583Z,80.14
2023-03-26T06:19:35.616Z,79.16
2023-03-26T06:22:03.258Z,79.22
2023-03-26T06:24:31.174Z,80.13
2023-03-26T06:26:58.872Z,80.80
2023-03-26T06:29:26.987Z,81.49
2023-03-26T06:31:54.722Z,82.22
2023-03-26T06:34:22.716Z,82.24
2023-03-26T06:36:52.682Z,82.46
2023-03-26T06:39:20.740Z,81.53
2023-03-26T06:41:48.433Z,80.56
2023-03-26T06:44:16.295Z,79.79
2023-03-26T06:46:44.042Z,78.32
2023-03-26T06:49:11.749Z,77.90
2023-03-26T06:51:41.159Z,79.10
2023-03-26T06:54:10.646Z,79.03
2023-03-26T06:56:38.367Z,78.58
2023-03-26T06:59:06.107Z,78.61
2023-03-26T07:01:33.937Z,78.45
2023-03-26T07:04:01.622Z,78.98
2023-03-26T07:06:29.323Z,77.13
2023-03-26T07:08:57.493Z,77.66
2023-03-26T07:11:27.087Z,76.27
2023-03-26T07:13:56.263Z,76.62
2023-03-26T07:16:24.041Z,75.82
2023-03-26T07:18:52.058Z,75.39
2023-03-26T07:21:21.598Z,73.78
2023-03-26T07:23:50.318Z,75.86
2023-03-26T07:26:32.126Z,75.73
2023-03-26T07:29:10.438Z,75.97
2023-03-26T07:31:44.745Z,74.58
2023-03-26T07:34:27.032Z,73.25
2023-03-26T07:36:59.726Z,73.94
2023-03-26T07:39:40.556Z,75.57
2023-03-26T07:42:31.149Z,74.13
2023-03-26T07:45:04.155Z,72.79
2023-03-26T07:47:35.102Z,71.65
2023-03-26T07:50:03.427Z,71.21
2023-03-26T07:52:31.584Z,71.87
2023-03-26T07:54:59.831Z,68.68
2023-03-26T07:57:39.745Z,66.68
2023-03-26T08:00:15.154Z,67.46
2023-03-26T08:03:11.803Z,66.98
2023-03-26T08:05:44.486Z,67.25
2023-03-26T08:08:19.642Z,66.76
2023-03-26T08:11:01.030Z,64.88
2023-03-26T08:13:36.021Z,63.14
2023-03-26T08:16:11.096Z,61.52
2023-03-26T08:18:46.656Z,62.36
2023-03-26T08:21:18.569Z,63.26
2023-03-26T08:23:57.606Z,62.29
2023-03-26T08:26:35.340Z,60.17
2023-03-26T08:29:17.243Z,59.32
2023-03-26T08:31:47.657Z,60.12
2023-03-26T08:34:15.509Z,60.54
2023-03-26T08:36:43.248Z,60.26
2023-03-26T08:39:10.970Z,61.26
2023-03-26T08:42:08.732Z,63.07
2023-03-26T08:45:04.393Z,62.76
2023-03-26T08:47:59.122Z,61.81
2023-03-26T08:51:07.655Z,62.96
2023-03-26T08:54:15.670Z,65.06
2023-03-26T08:56:52.615Z,65.43
2023-03-26T09:00:13.561Z,62.65
2023-03-26T09:03:09.182Z,62.05
2023-03-26T09:06:18.411Z,62.51
2023-03-26T09:09:19.567Z,60.15
2023-03-26T09:12:20.444Z,60.81
2023-03-26T09:15:29.554Z,60.90
2023-03-26T09:18:29.859Z,61.54
2023-03-26T09:21:33.168Z,60.89
2023-03-26T09:24:36.267Z,62.01
2023-03-26T09:27:16.976Z,61.26
2023-03-26T09:30:20.559Z,60.00
2023-03-26T09:33:19.510Z,60.28
2023-03-26T09:35:54.132Z,59.22
2023-03-26T09:38:42.625Z,59.23
2023-03-26T09:41:18.377Z,59.25
2023-03-26T09:44:27.393Z,59.68
2023-03-26T09:47:11.895Z,58.86
2023-03-26T09:49:48.644Z,59.94
2023-03-26T09:52:41.774Z,59.12
2023-03-26T09:55:38.553Z,58.85
2023-03-26T09:58:22.282Z,57.19
2023-03-26T10:01:00.939Z,57.92
2023-03-26T10:03:40.881Z,58.22
2023-03-26T10:06:28.644Z,59.11
2023-03-26T10:09:18.997Z,58.79
2023-03-26T10:12:03.115Z,57.42
2023-03-26T10:14:40.164Z,56.84
2023-03-26T10:17:25.413Z,58.34
2023-03-26T10:20:08.741Z,56.72
2023-03-26T10:22:54.510Z,57.09
2023-03-26T10:25:42.114Z,56.99
2023-03-26T10:28:36.864Z,58.06
2023-03-26T10:31:36.274Z,57.00
2023-03-26T10:34:28.919Z,55.06
2023-03-26T10:37:09.295Z,57.77
2023-03-26T10:40:08.265Z,56.04
2023-03-26T10:43:01.003Z,56.11
2023-03-26T10:45:41.065Z,54.66
2023-03-26T10:48:28.752Z,54.78
2023-03-26T10:51:15.464Z,54.33
2023-03-26T10:53:47.840Z,54.78
2023-03-26T10:56:24.452Z,55.92
2023-03-26T10:58:52.446Z,56.76
2023-03-26T11:01:28.757Z,53.58
2023-03-26T11:03:57.218Z,55.68
2023-03-26T11:06:35.513Z,56.87
2023-03-26T11:09:12.225Z,55.95
2023-03-26T11:11:48.984Z,57.11
2023-03-26T11:14:33.761Z,56.47
2023-03-26T11:17:14.454Z,56.88
2023-03-26T11:20:05.892Z,54.72
2023-03-26T11:22:45.076Z,53.69
2023-03-26T11:25:36.879Z,54.90
2023-03-26T11:28:17.702Z,56.37
2023-03-26T11:30:49.613Z,56.31
2023-03-26T11:33:21.758Z,56.62
2023-03-26T11:35:52.519Z,56.13
2023-03-26T11:38:25.676Z,57.40
2023-03-26T11:40:56.043Z,56.95
2023-03-26T11:43:29.184Z,55.94
2023-03-26T11:45:57.615Z,55.21
2023-03-26T11:48:29.278Z,55.74
2023-03-26T11:51:02.931Z,57.30
2023-03-26T11:53:34.556Z,57.11
2023-03-26T11:56:05.751Z,56.39
2023-03-26T11:58:39.939Z,57.29
2023-03-26T12:01:15.782Z,58.49
2023-03-26T12:03:44.205Z,57.52
2023-03-26T12:06:25.569Z,56.39
2023-03-26T12:08:54.936Z,58.36
2023-03-26T12:11:28.165Z,57.34
2023-03-26T12:14:01.875Z,57.38
2023-03-26T12:16:29.689Z,55.76
2023-03-26T12:19:03.827Z,56.39
2023-03-26T12:21:31.543Z,58.45
2023-03-26T12:24:01.342Z,57.89
2023-03-26T12:26:46.916Z,57.74
2023-03-26T12:29:17.443Z,57.51
2023-03-26T12:31:52.248Z,56.92
2023-03-26T12:34:22.148Z,55.90
2023-03-26T12:36:53.053Z,57.14
2023-03-26T12:40:08.087Z,57.50
2023-03-26T12:44:49.857Z,58.66
2023-03-26T12:45:22.383Z,57.64
2023-03-26T12:48:02.502Z,57.50
2023-03-26T12:50:46.167Z,58.49
2023-03-26T12:53:40.895Z,57.74
2023-03-26T12:56:21.556Z,56.10
2023-03-26T12:59:23.489Z,55.03
2023-03-26T13:02:01.392Z,55.06
2023-03-26T13:05:04.406Z,56.04
2023-03-26T13:07:47.871Z,57.14
2023-03-26T13:10:49.429Z,55.80
2023-03-26T13:13:52.056Z,56.04
2023-03-26T13:16:30.981Z,55.47
2023-03-26T13:19:05.284Z,54.94
2023-03-26T13:21:45.990Z,55.57
2023-03-26T13:24:26.456Z,57.15
2023-03-26T13:27:05.582Z,56.93
2023-03-26T13:29:41.690Z,54.85
2023-03-26T13:32:17.544Z,55.43
2023-03-26T13:35:01.975Z,57.21
2023-03-26T13:37:35.718Z,53.91
2023-03-26T13:40:18.015Z,54.15
2023-03-26T13:42:57.543Z,54.82
2023-03-26T13:45:41.770Z,53.88
2023-03-26T13:48:17.371Z,55.78
2023-03-26T13:50:57.179Z,54.20
2023-03-26T13:53:29.270Z,53.07
2023-03-26T13:56:00.244Z,53.08
2023-03-26T13:58:36.283Z,54.24
2023-03-26T14:01:09.356Z,54.20
2023-03-26T14:03:48.035Z,54.36
2023-03-26T14:06:29.413Z,55.53
2023-03-26T14:09:02.672Z,54.93
2023-03-26T14:11:43.702Z,54.91
2023-03-26T14:14:15.094Z,55.53
2023-03-26T14:16:48.083Z,56.07
2023-03-26T14:19:36.002Z,54.92
2023-03-26T14:22:18.879Z,52.73
2023-03-26T14:25:02.711Z,53.70
2023-03-26T14:27:41.669Z,54.11
2023-03-26T14:30:28.512Z,53.47
2023-03-26T14:33:13.740Z,53.64
2023-03-26T14:35:50.222Z,54.13
2023-03-26T14:38:41.716Z,54.80
2023-03-26T14:41:24.236Z,54.55
2023-03-26T14:44:24.947Z,53.99
2023-03-26T14:47:08.224Z,54.09
2023-03-26T14:49:51.818Z,55.97
2023-03-26T14:52:30.728Z,56.31
2023-03-26T14:55:04.973Z,56.85
2023-03-26T14:57:56.844Z,54.30
2023-03-26T15:01:04.328Z,53.99
2023-03-26T15:04:08.148Z,52.62
2023-03-26T15:07:04.251Z,54.23
2023-03-26T15:10:22.596Z,56.61
2023-03-26T15:13:06.386Z,56.03
2023-03-26T15:16:04.485Z,55.68
2023-03-26T15:18:53.757Z,58.21
2023-03-26T15:21:58.714Z,58.25
2023-03-26T15:25:08.179Z,56.91
2023-03-26T15:27:54.680Z,56.73
2023-03-26T15:31:16.563Z,56.11
2023-03-26T15:34:20.010Z,58.29
2023-03-26T15:37:18.714Z,58.36
2023-03-26T15:40:19.880Z,59.00
2023-03-26T15:43:01.633Z,59.85
2023-03-26T15:45:36.470Z,59.54
2023-03-26T15:48:39.553Z,59.60
2023-03-26T15:51:22.379Z,58.78
2023-03-26T15:53:56.226Z,58.88
2023-03-26T15:56:49.187Z,58.57
2023-03-26T15:59:34.888Z,58.47
2023-03-26T16:02:16.259Z,57.75
2023-03-26T16:04:51.882Z,58.35
2023-03-26T16:07:41.288Z,56.61
2023-03-26T16:10:29.203Z,56.50
2023-03-26T16:13:36.143Z,55.02
2023-03-26T16:16:45.949Z,56.09
2023-03-26T16:19:40.975Z,55.00
2023-03-26T16:22:15.944Z,54.61
2023-03-26T16:24:47.632Z,55.57
2023-03-26T16:27:35.115Z,56.39
2023-03-26T16:30:27.378Z,55.12
2023-03-26T16:32:58.716Z,56.30
2023-03-26T16:35:56.918Z,57.11
2023-03-26T16:38:27.295Z,56.29
2023-03-26T16:41:02.201Z,57.20
2023-03-26T16:43:47.783Z,57.03
2023-03-26T16:46:29.659Z,58.18
2023-03-26T16:49:04.720Z,57.98
2023-03-26T16:51:50.760Z,58.68
2023-03-26T16:54:27.588Z,58.33
2023-03-26T16:57:01.835Z,57.62
2023-03-26T16:59:43.978Z,56.10
2023-03-26T17:02:21.761Z,58.28
2023-03-26T17:04:54.751Z,58.68
2023-03-26T17:07:36.085Z,58.81
2023-03-26T17:10:16.018Z,58.93
2023-03-26T17:12:50.356Z,58.90
2023-03-26T17:15:33.366Z,58.77
2023-03-26T17:18:25.474Z,58.15
2023-03-26T17:21:02.130Z,59.64
2023-03-26T17:23:48.035Z,59.74
2023-03-26T17:26:25.338Z,60.69
2023-03-26T17:29:10.484Z,60.89
2023-03-26T17:31:44.364Z,61.13
2023-03-26T17:34:34.475Z,61.35
2023-03-26T17:37:05.745Z,62.99
2023-03-26T17:40:37.888Z,64.61
2023-03-26T17:43:11.138Z,65.36
2023-03-26T17:45:40.484Z,65.87
2023-03-26T17:48:16.629Z,67.21
2023-03-26T17:50:51.824Z,67.04
2023-03-26T17:53:25.031Z,67.00
2023-03-26T17:55:56.372Z,68.28
2023-03-26T17:58:29.067Z,67.93
2023-03-26T18:01:06.757Z,68.82
2023-03-26T18:03:40.898Z,68.35
2023-03-26T18:06:12.130Z,70.64
2023-03-26T18:08:50.748Z,69.59
2023-03-26T18:11:51.003Z,69.83
2023-03-26T18:14:48.194Z,69.84
2023-03-26T18:17:16.500Z,69.59
2023-03-26T18:19:49.782Z,68.69
2023-03-26T18:22:22.953Z,69.94
2023-03-26T18:24:51.802Z,69.23
2023-03-26T18:27:23.404Z,70.15
2023-03-26T18:30:03.030Z,69.39
2023-03-26T18:32:33.513Z,69.00
2023-03-26T18:35:14.334Z,68.82
2023-03-26T18:37:46.033Z,69.75
2023-03-26T18:40:19.117Z,68.76
2023-03-26T18:42:51.930Z,68.82
2023-03-26T18:45:26.429Z,70.28
2023-03-26T18:47:56.722Z,70.45
2023-03-26T18:50:31.843Z,69.57
2023-03-26T18:53:01.156Z,69.83
2023-03-26T18:55:30.758Z,70.62
2023-03-26T18:57:59.911Z,69.62
2023-03-26T19:00:30.348Z,69.92
2023-03-26T19:03:04.550Z,70.39
2023-03-26T19:05:34.686Z,69.68
2023-03-26T19:08:04.832Z,69.99
2023-03-26T19:10:34.168Z,68.79
2023-03-26T19:13:04.334Z,69.40
2023-03-26T19:15:34.348Z,69.70
2023-03-26T19:18:07.293Z,69.35
2023-03-26T19:20:41.629Z,69.39
2023-03-26T19:23:14.698Z,68.06
2023-03-26T19:25:47.457Z,68.22
2023-03-26T19:28:20.669Z,67.52
2023-03-26T19:30:53.351Z,66.79
2023-03-26T19:33:22.472Z,66.61
2023-03-26T19:35:55.456Z,66.95
2023-03-26T19:38:27.093Z,66.95
2023-03-26T19:40:57.523Z,66.87
2023-03-26T19:43:27.613Z,65.76
2023-03-26T19:46:00.266Z,65.57
2023-03-26T19:48:46.197Z,65.70
2023-03-26T19:51:22.632Z,64.75
2023-03-26T19:53:54.220Z,64.09
2023-03-26T19:56:23.217Z,62.92
2023-03-26T19:58:52.465Z,62.95
2023-03-26T20:01:22.852Z,62.92
2023-03-26T20:03:52.770Z,63.60
2023-03-26T20:06:30.733Z,62.87
2023-03-26T20:09:04.640Z,62.06
2023-03-26T20:11:34.335Z,62.75
2023-03-26T20:14:08.150Z,62.14
2023-03-26T20:16:36.059Z,63.46
2023-03-26T20:19:04.413Z,63.46
2023-03-26T20:21:34.631Z,62.93
2023-03-26T20:24:02.943Z,62.10
2023-03-26T20:26:30.653Z,62.41
2023-03-26T20:28:58.904Z,62.40
2023-03-26T20:31:28.638Z,63.01
2023-03-26T20:33:56.452Z,63.50
2023-03-26T20:36:34.059Z,62.41
2023-03-26T20:39:05.809Z,61.45
2023-03-26T20:41:34.335Z,61.52
2023-03-26T20:44:05.691Z,62.14
2023-03-26T20:46:34.852Z,61.41
2023-03-26T20:49:02.590Z,62.91
2023-03-26T20:51:30.260Z,62.32
2023-03-26T20:53:58.004Z,61.78
2023-03-26T20:56:25.818Z,63.32
2023-03-26T20:59:09.823Z,62.49
2023-03-26T21:01:39.972Z,62.75
2023-03-26T21:04:07.910Z,63.04
2023-03-26T21:06:35.825Z,62.19
2023-03-26T21:09:04.129Z,62.68
2023-03-26T21:11:45.352Z,62.86
2023-03-26T21:14:20.857Z,63.11
2023-03-26T21:16:50.838Z,63.91
2023-03-26T21:19:19.194Z,63.44
2023-03-26T21:21:59.451Z,63.40
2023-03-26T21:24:45.104Z,62.10
2023-03-26T21:27:22.273Z,61.44
2023-03-26T21:29:50.412Z,63.17
2023-03-26T21:32:20.347Z,62.85
2023-03-26T21:34:58.098Z,61.76
2023-03-26T21:37:27.916Z,63.22
2023-03-26T21:39:56.109Z,64.12
2023-03-26T21:42:26.858Z,63.37
2023-03-26T21:44:55.104Z,63.41
2023-03-26T21:47:24.700Z,64.17
2023-03-26T21:49:54.650Z,63.94
2023-03-26T21:52:23.916Z,64.78
2023-03-26T21:54:52.510Z,64.44
2023-03-26T21:57:40.515Z,63.93
2023-03-26T22:00:15.198Z,64.02
2023-03-26T22:02:57.256Z,63.41
2023-03-26T22:05:32.781Z,63.83
2023-03-26T22:08:02.925Z,64.11
2023-03-26T22:10:32.030Z,63.82
2023-03-26T22:12:59.932Z,63.83
2023-03-26T22:15:30.586Z,65.25
2023-03-26T22:18:02.378Z,64.48
2023-03-26T22:20:30.440Z,63.06
2023-03-26T22:22:59.679Z,63.71
2023-03-26T22:25:27.607Z,62.87
2023-03-26T22:27:55.404Z,63.25
2023-03-26T22:30:23.145Z,64.04
2023-03-26T22:32:51.732Z,63.67
2023-03-26T22:35:21.077Z,64.17
2023-03-26T22:37:48.966Z,64.59
2023-03-26T22:40:17.897Z,64.32
2023-03-26T22:42:45.735Z,63.59
2023-03-26T22:45:13.747Z,64.03
2023-03-26T22:47:41.536Z,63.83
2023-03-26T22:50:10.754Z,63.76
2023-03-26T22:52:40.755Z,64.85
2023-03-26T22:55:11.002Z,64.97
2023-03-26T22:57:39.051Z,65.92
2023-03-26T23:00:16.117Z,65.46
2023-03-26T23:02:45.768Z,65.67
2023-03-26T23:05:14.128Z,64.64
2023-03-26T23:07:43.588Z,64.07
2023-03-26T23:10:12.150Z,64.42
2023-03-26T23:12:40.339Z,65.04
2023-03-26T23:15:09.924Z,65.02
2023-03-26T23:17:38.953Z,65.99
2023-03-26T23:20:14.624Z,64.40
2023-03-26T23:22:44.760Z,65.14
2023-03-26T23:25:13.636Z,64.03
2023-03-26T23:27:41.587Z,64.33
2023-03-26T23:30:11.796Z,64.80
2023-03-26T23:32:40.655Z,65.33
2023-03-26T23:35:09.034Z,65.76
2023-03-26T23:37:36.694Z,65.97
2023-03-26T23:40:10.003Z,66.05
2023-03-26T23:42:38.416Z,65.49
2023-03-26T23:45:08.425Z,65.81
2023-03-26T23:47:37.280Z,65.94
2023-03-26T23:50:05.890Z,68.87
2023-03-26T23:52:33.738Z,67.19
2023-03-26T23:55:01.454Z,68.90
2023-03-26T23:57:31.886Z,68.08
2023-03-26T23:59:59.653Z,69.05
